sensor_id;sensor_type;location;lat;lon;timestamp;P1;durP1;ratioP1;P2;durP2;ratioP2
13571;SDS011;6857;53.484;10.216;2023-08-31T00:01:35;14.47;;;12.47;;
13571;SDS011;6857;53.484;10.216;2023-08-31T00:04:01;13.87;;;12.37;;
13571;SDS011;6857;53.484;10.216;2023-08-31T00:06:29;13.70;;;12.20;;
13571;SDS011;6857;53.484;10.216;2023-08-31T00:08:55;13.73;;;11.43;;
13571;SDS011;6857;53.484;10.216;2023-08-31T00:11:21;13.33;;;11.50;;
13571;SDS011;6857;53.484;10.216;2023-08-31T00:13:46;13.00;;;10.93;;
13571;SDS011;6857;53.484;10.216;2023-08-31T00:16:12;11.60;;;10.30;;
13571;SDS011;6857;53.484;10.216;2023-08-31T00:18:38;11.53;;;10.33;;
13571;SDS011;6857;53.484;10.216;2023-08-31T00:21:04;11.40;;;9.07;;
13571;SDS011;6857;53.484;10.216;2023-08-31T00:23:31;10.13;;;8.90;;
13571;SDS011;6857;53.484;10.216;2023-08-31T00:25:56;12.80;;;9.13;;
13571;SDS011;6857;53.484;10.216;2023-08-31T00:28:23;9.93;;;7.57;;
13571;SDS011;6857;53.484;10.216;2023-08-31T00:30:50;8.47;;;7.47;;
13571;SDS011;6857;53.484;10.216;2023-08-31T00:33:16;10.17;;;7.57;;
13571;SDS011;6857;53.484;10.216;2023-08-31T00:35:42;9.97;;;8.10;;
13571;SDS011;6857;53.484;10.216;2023-08-31T00:38:12;8.43;;;7.13;;
13571;SDS011;6857;53.484;10.216;2023-08-31T00:40:42;11.87;;;8.20;;
13571;SDS011;6857;53.484;10.216;2023-08-31T00:43:09;11.37;;;8.17;;
13571;SDS011;6857;53.484;10.216;2023-08-31T00:45:36;9.93;;;8.60;;
13571;SDS011;6857;53.484;10.216;2023-08-31T00:48:03;12.20;;;8.97;;
13571;SDS011;6857;53.484;10.216;2023-08-31T00:50:29;10.63;;;8.60;;
13571;SDS011;6857;53.484;10.216;2023-08-31T00:52:55;13.67;;;9.17;;
13571;SDS011;6857;53.484;10.216;2023-08-31T00:55:22;11.00;;;9.10;;
13571;SDS011;6857;53.484;10.216;2023-08-31T00:57:48;14.53;;;10.40;;
13571;SDS011;6857;53.484;10.216;2023-08-31T01:00:14;14.73;;;9.77;;
13571;SDS011;6857;53.484;10.216;2023-08-31T01:02:49;12.27;;;10.67;;
13571;SDS011;6857;53.484;10.216;2023-08-31T01:05:27;11.80;;;10.27;;
13571;SDS011;6857;53.484;10.216;2023-08-31T01:10:41;13.83;;;11.47;;
13571;SDS011;6857;53.484;10.216;2023-08-31T01:15:36;15.80;;;12.23;;
13571;SDS011;6857;53.484;10.216;2023-08-31T01:18:03;13.87;;;12.07;;
13571;SDS011;6857;53.484;10.216;2023-08-31T01:20:31;15.13;;;12.13;;
13571;SDS011;6857;53.484;10.216;2023-08-31T01:23:06;17.43;;;12.40;;
13571;SDS011;6857;53.484;10.216;2023-08-31T01:25:33;15.77;;;12.47;;
13571;SDS011;6857;53.484;10.216;2023-08-31T01:28:00;15.07;;;11.33;;
13571;SDS011;6857;53.484;10.216;2023-08-31T01:30:29;14.53;;;12.33;;
13571;SDS011;6857;53.484;10.216;2023-08-31T01:32:56;17.70;;;11.43;;
13571;SDS011;6857;53.484;10.216;2023-08-31T01:35:25;15.80;;;11.27;;
13571;SDS011;6857;53.484;10.216;2023-08-31T01:38:01;15.97;;;12.00;;
13571;SDS011;6857;53.484;10.216;2023-08-31T01:43:30;15.07;;;11.90;;
13571;SDS011;6857;53.484;10.216;2023-08-31T01:45:58;15.60;;;12.23;;
13571;SDS011;6857;53.484;10.216;2023-08-31T01:48:24;15.63;;;12.10;;
13571;SDS011;6857;53.484;10.216;2023-08-31T01:50:50;14.17;;;11.00;;
13571;SDS011;6857;53.484;10.216;2023-08-31T01:53:16;17.00;;;12.00;;
13571;SDS011;6857;53.484;10.216;2023-08-31T01:55:42;13.27;;;11.00;;
13571;SDS011;6857;53.484;10.216;2023-08-31T01:58:08;14.37;;;11.70;;
13571;SDS011;6857;53.484;10.216;2023-08-31T02:00:34;11.87;;;10.30;;
13571;SDS011;6857;53.484;10.216;2023-08-31T02:03:00;12.93;;;10.37;;
13571;SDS011;6857;53.484;10.216;2023-08-31T02:05:26;11.67;;;10.10;;
13571;SDS011;6857;53.484;10.216;2023-08-31T02:07:52;11.40;;;9.47;;
13571;SDS011;6857;53.484;10.216;2023-08-31T02:10:18;13.77;;;9.47;;
13571;SDS011;6857;53.484;10.216;2023-08-31T02:12:44;11.33;;;9.13;;
13571;SDS011;6857;53.484;10.216;2023-08-31T02:15:10;12.43;;;9.40;;
13571;SDS011;6857;53.484;10.216;2023-08-31T02:17:36;10.60;;;9.03;;
13571;SDS011;6857;53.484;10.216;2023-08-31T02:20:02;10.27;;;8.43;;
13571;SDS011;6857;53.484;10.216;2023-08-31T02:22:33;9.37;;;8.03;;
13571;SDS011;6857;53.484;10.216;2023-08-31T02:25:03;10.97;;;8.37;;
13571;SDS011;6857;53.484;10.216;2023-08-31T02:27:29;11.50;;;9.57;;
13571;SDS011;6857;53.484;10.216;2023-08-31T02:29:54;12.10;;;8.57;;
13571;SDS011;6857;53.484;10.216;2023-08-31T02:32:20;10.33;;;7.67;;
13571;SDS011;6857;53.484;10.216;2023-08-31T02:34:46;13.57;;;8.27;;
13571;SDS011;6857;53.484;10.216;2023-08-31T02:37:12;11.63;;;8.67;;
13571;SDS011;6857;53.484;10.216;2023-08-31T02:39:38;12.77;;;9.37;;
13571;SDS011;6857;53.484;10.216;2023-08-31T02:42:05;12.80;;;9.00;;
13571;SDS011;6857;53.484;10.216;2023-08-31T02:44:32;13.47;;;8.43;;
13571;SDS011;6857;53.484;10.216;2023-08-31T02:46:58;9.63;;;8.33;;
13571;SDS011;6857;53.484;10.216;2023-08-31T02:49:24;11.37;;;8.93;;
13571;SDS011;6857;53.484;10.216;2023-08-31T02:51:50;11.20;;;8.50;;
13571;SDS011;6857;53.484;10.216;2023-08-31T02:54:16;11.43;;;9.03;;
13571;SDS011;6857;53.484;10.216;2023-08-31T02:56:42;9.67;;;8.67;;
13571;SDS011;6857;53.484;10.216;2023-08-31T02:59:08;10.87;;;8.47;;
13571;SDS011;6857;53.484;10.216;2023-08-31T03:01:34;12.73;;;9.67;;
13571;SDS011;6857;53.484;10.216;2023-08-31T03:04:00;11.00;;;8.77;;
13571;SDS011;6857;53.484;10.216;2023-08-31T03:06:26;11.47;;;8.93;;
13571;SDS011;6857;53.484;10.216;2023-08-31T03:08:52;8.73;;;7.50;;
13571;SDS011;6857;53.484;10.216;2023-08-31T03:11:18;8.87;;;6.73;;
13571;SDS011;6857;53.484;10.216;2023-08-31T03:13:44;10.13;;;7.07;;
13571;SDS011;6857;53.484;10.216;2023-08-31T03:16:10;10.87;;;6.87;;
13571;SDS011;6857;53.484;10.216;2023-08-31T03:18:36;9.17;;;7.13;;
13571;SDS011;6857;53.484;10.216;2023-08-31T03:21:02;10.87;;;7.23;;
13571;SDS011;6857;53.484;10.216;2023-08-31T03:23:29;9.50;;;6.67;;
13571;SDS011;6857;53.484;10.216;2023-08-31T03:25:55;11.67;;;6.67;;
13571;SDS011;6857;53.484;10.216;2023-08-31T03:28:21;8.90;;;7.03;;
13571;SDS011;6857;53.484;10.216;2023-08-31T03:30:53;9.90;;;7.57;;
13571;SDS011;6857;53.484;10.216;2023-08-31T03:33:19;10.43;;;7.17;;
13571;SDS011;6857;53.484;10.216;2023-08-31T03:35:45;11.70;;;7.20;;
13571;SDS011;6857;53.484;10.216;2023-08-31T03:38:11;9.17;;;7.10;;
13571;SDS011;6857;53.484;10.216;2023-08-31T03:40:37;9.67;;;6.97;;
13571;SDS011;6857;53.484;10.216;2023-08-31T03:43:03;10.33;;;7.43;;
13571;SDS011;6857;53.484;10.216;2023-08-31T03:45:29;10.67;;;6.97;;
13571;SDS011;6857;53.484;10.216;2023-08-31T03:47:55;11.40;;;7.10;;
13571;SDS011;6857;53.484;10.216;2023-08-31T03:50:21;10.57;;;6.73;;
13571;SDS011;6857;53.484;10.216;2023-08-31T03:52:47;9.93;;;7.23;;
13571;SDS011;6857;53.484;10.216;2023-08-31T03:55:13;12.50;;;6.73;;
13571;SDS011;6857;53.484;10.216;2023-08-31T03:57:39;8.47;;;6.67;;
13571;SDS011;6857;53.484;10.216;2023-08-31T04:00:05;8.50;;;6.83;;
13571;SDS011;6857;53.484;10.216;2023-08-31T04:02:33;9.07;;;6.20;;
13571;SDS011;6857;53.484;10.216;2023-08-31T04:05:00;9.67;;;6.20;;
13571;SDS011;6857;53.484;10.216;2023-08-31T04:07:26;12.73;;;6.77;;
13571;SDS011;6857;53.484;10.216;2023-08-31T04:09:52;12.23;;;6.73;;
13571;SDS011;6857;53.484;10.216;2023-08-31T04:12:18;9.60;;;5.93;;
13571;SDS011;6857;53.484;10.216;2023-08-31T04:14:43;8.63;;;6.07;;
13571;SDS011;6857;53.484;10.216;2023-08-31T04:17:09;11.53;;;6.27;;
13571;SDS011;6857;53.484;10.216;2023-08-31T04:19:35;8.63;;;6.07;;
13571;SDS011;6857;53.484;10.216;2023-08-31T04:22:02;9.93;;;6.43;;
13571;SDS011;6857;53.484;10.216;2023-08-31T04:24:29;8.40;;;5.50;;
13571;SDS011;6857;53.484;10.216;2023-08-31T04:26:55;8.33;;;6.13;;
13571;SDS011;6857;53.484;10.216;2023-08-31T04:29:21;6.40;;;5.60;;
13571;SDS011;6857;53.484;10.216;2023-08-31T04:31:47;7.37;;;5.90;;
13571;SDS011;6857;53.484;10.216;2023-08-31T04:34:13;11.23;;;5.97;;
13571;SDS011;6857;53.484;10.216;2023-08-31T04:36:39;9.87;;;7.00;;
13571;SDS011;6857;53.484;10.216;2023-08-31T04:39:05;11.47;;;6.50;;
13571;SDS011;6857;53.484;10.216;2023-08-31T04:41:32;8.30;;;6.60;;
13571;SDS011;6857;53.484;10.216;2023-08-31T04:43:58;9.33;;;7.13;;
13571;SDS011;6857;53.484;10.216;2023-08-31T04:46:24;7.87;;;6.17;;
13571;SDS011;6857;53.484;10.216;2023-08-31T04:48:50;8.13;;;5.50;;
13571;SDS011;6857;53.484;10.216;2023-08-31T04:53:55;8.03;;;5.73;;
13571;SDS011;6857;53.484;10.216;2023-08-31T04:56:20;11.27;;;7.10;;
13571;SDS011;6857;53.484;10.216;2023-08-31T04:58:46;12.10;;;5.80;;
13571;SDS011;6857;53.484;10.216;2023-08-31T05:01:12;7.23;;;5.47;;
13571;SDS011;6857;53.484;10.216;2023-08-31T05:03:39;9.17;;;6.60;;
13571;SDS011;6857;53.484;10.216;2023-08-31T05:06:05;7.47;;;5.07;;
13571;SDS011;6857;53.484;10.216;2023-08-31T05:08:31;8.03;;;6.10;;
13571;SDS011;6857;53.484;10.216;2023-08-31T05:10:57;9.47;;;5.70;;
13571;SDS011;6857;53.484;10.216;2023-08-31T05:13:23;12.90;;;6.00;;
13571;SDS011;6857;53.484;10.216;2023-08-31T05:15:49;7.70;;;5.80;;
13571;SDS011;6857;53.484;10.216;2023-08-31T05:18:15;7.83;;;5.53;;
13571;SDS011;6857;53.484;10.216;2023-08-31T05:20:44;9.00;;;6.10;;
13571;SDS011;6857;53.484;10.216;2023-08-31T05:23:10;9.60;;;6.60;;
13571;SDS011;6857;53.484;10.216;2023-08-31T05:25:41;12.73;;;7.47;;
13571;SDS011;6857;53.484;10.216;2023-08-31T05:28:07;10.17;;;6.37;;
13571;SDS011;6857;53.484;10.216;2023-08-31T05:30:33;7.87;;;6.07;;
13571;SDS011;6857;53.484;10.216;2023-08-31T05:32:59;8.97;;;5.83;;
13571;SDS011;6857;53.484;10.216;2023-08-31T05:35:25;8.27;;;5.73;;
13571;SDS011;6857;53.484;10.216;2023-08-31T05:37:51;7.53;;;6.00;;
13571;SDS011;6857;53.484;10.216;2023-08-31T05:40:17;8.80;;;5.63;;
13571;SDS011;6857;53.484;10.216;2023-08-31T05:42:43;8.10;;;5.53;;
13571;SDS011;6857;53.484;10.216;2023-08-31T05:45:09;10.97;;;5.63;;
13571;SDS011;6857;53.484;10.216;2023-08-31T05:47:35;12.13;;;5.83;;
13571;SDS011;6857;53.484;10.216;2023-08-31T05:50:01;8.80;;;5.00;;
13571;SDS011;6857;53.484;10.216;2023-08-31T05:52:28;7.20;;;5.30;;
13571;SDS011;6857;53.484;10.216;2023-08-31T05:54:54;8.73;;;5.30;;
13571;SDS011;6857;53.484;10.216;2023-08-31T05:57:20;8.83;;;5.33;;
13571;SDS011;6857;53.484;10.216;2023-08-31T05:59:46;10.13;;;5.83;;
13571;SDS011;6857;53.484;10.216;2023-08-31T06:02:12;5.93;;;4.83;;
13571;SDS011;6857;53.484;10.216;2023-08-31T06:04:39;6.57;;;4.53;;
13571;SDS011;6857;53.484;10.216;2023-08-31T06:07:05;7.73;;;4.70;;
13571;SDS011;6857;53.484;10.216;2023-08-31T06:09:31;5.27;;;4.07;;
13571;SDS011;6857;53.484;10.216;2023-08-31T06:11:57;7.57;;;4.97;;
13571;SDS011;6857;53.484;10.216;2023-08-31T06:14:23;7.73;;;4.43;;
13571;SDS011;6857;53.484;10.216;2023-08-31T06:16:49;5.03;;;3.80;;
13571;SDS011;6857;53.484;10.216;2023-08-31T06:19:15;6.10;;;4.00;;
13571;SDS011;6857;53.484;10.216;2023-08-31T06:21:41;6.30;;;4.10;;
13571;SDS011;6857;53.484;10.216;2023-08-31T06:24:07;7.93;;;4.27;;
13571;SDS011;6857;53.484;10.216;2023-08-31T06:26:35;6.30;;;3.80;;
13571;SDS011;6857;53.484;10.216;2023-08-31T06:29:01;6.47;;;3.80;;
13571;SDS011;6857;53.484;10.216;2023-08-31T06:31:30;8.10;;;4.47;;
13571;SDS011;6857;53.484;10.216;2023-08-31T06:33:57;6.10;;;3.33;;
13571;SDS011;6857;53.484;10.216;2023-08-31T06:36:23;9.23;;;4.83;;
13571;SDS011;6857;53.484;10.216;2023-08-31T06:38:49;6.03;;;3.80;;
13571;SDS011;6857;53.484;10.216;2023-08-31T06:41:15;7.50;;;3.53;;
13571;SDS011;6857;53.484;10.216;2023-08-31T06:43:41;7.57;;;4.17;;
13571;SDS011;6857;53.484;10.216;2023-08-31T06:46:07;5.67;;;3.90;;
13571;SDS011;6857;53.484;10.216;2023-08-31T06:48:33;4.23;;;3.30;;
13571;SDS011;6857;53.484;10.216;2023-08-31T06:50:59;6.93;;;4.07;;
13571;SDS011;6857;53.484;10.216;2023-08-31T06:53:25;7.03;;;3.70;;
13571;SDS011;6857;53.484;10.216;2023-08-31T06:55:51;8.63;;;3.93;;
13571;SDS011;6857;53.484;10.216;2023-08-31T06:58:17;6.80;;;4.10;;
13571;SDS011;6857;53.484;10.216;2023-08-31T07:00:43;7.27;;;4.13;;
13571;SDS011;6857;53.484;10.216;2023-08-31T07:03:09;7.43;;;4.13;;
13571;SDS011;6857;53.484;10.216;2023-08-31T07:05:36;6.33;;;3.63;;
13571;SDS011;6857;53.484;10.216;2023-08-31T07:08:06;5.97;;;3.50;;
13571;SDS011;6857;53.484;10.216;2023-08-31T07:10:33;6.13;;;4.03;;
13571;SDS011;6857;53.484;10.216;2023-08-31T07:13:01;6.40;;;3.73;;
13571;SDS011;6857;53.484;10.216;2023-08-31T07:15:27;7.17;;;3.63;;
13571;SDS011;6857;53.484;10.216;2023-08-31T07:17:53;5.53;;;3.73;;
13571;SDS011;6857;53.484;10.216;2023-08-31T07:20:19;7.10;;;3.10;;
13571;SDS011;6857;53.484;10.216;2023-08-31T07:22:45;8.37;;;3.57;;
13571;SDS011;6857;53.484;10.216;2023-08-31T07:25:11;6.33;;;3.17;;
13571;SDS011;6857;53.484;10.216;2023-08-31T07:27:37;4.57;;;2.57;;
13571;SDS011;6857;53.484;10.216;2023-08-31T07:30:04;7.90;;;2.90;;
13571;SDS011;6857;53.484;10.216;2023-08-31T07:32:30;6.33;;;2.67;;
13571;SDS011;6857;53.484;10.216;2023-08-31T07:34:56;6.40;;;3.03;;
13571;SDS011;6857;53.484;10.216;2023-08-31T07:37:22;6.37;;;2.70;;
13571;SDS011;6857;53.484;10.216;2023-08-31T07:39:48;4.10;;;2.50;;
13571;SDS011;6857;53.484;10.216;2023-08-31T07:42:14;4.57;;;2.53;;
13571;SDS011;6857;53.484;10.216;2023-08-31T07:44:40;5.07;;;2.33;;
13571;SDS011;6857;53.484;10.216;2023-08-31T07:47:07;3.93;;;2.40;;
13571;SDS011;6857;53.484;10.216;2023-08-31T07:49:33;2.30;;;1.90;;
13571;SDS011;6857;53.484;10.216;2023-08-31T07:51:59;5.43;;;2.40;;
13571;SDS011;6857;53.484;10.216;2023-08-31T07:54:25;3.60;;;2.50;;
13571;SDS011;6857;53.484;10.216;2023-08-31T07:56:51;3.13;;;2.43;;
13571;SDS011;6857;53.484;10.216;2023-08-31T07:59:17;4.33;;;2.73;;
13571;SDS011;6857;53.484;10.216;2023-08-31T08:01:43;4.63;;;2.73;;
13571;SDS011;6857;53.484;10.216;2023-08-31T08:04:10;5.57;;;2.67;;
13571;SDS011;6857;53.484;10.216;2023-08-31T08:06:37;4.27;;;2.40;;
13571;SDS011;6857;53.484;10.216;2023-08-31T08:09:03;4.80;;;2.50;;
13571;SDS011;6857;53.484;10.216;2023-08-31T08:11:29;4.63;;;2.23;;
13571;SDS011;6857;53.484;10.216;2023-08-31T08:13:56;3.13;;;1.73;;
13571;SDS011;6857;53.484;10.216;2023-08-31T08:16:22;5.37;;;2.20;;
13571;SDS011;6857;53.484;10.216;2023-08-31T08:18:48;5.07;;;1.90;;
13571;SDS011;6857;53.484;10.216;2023-08-31T08:21:14;4.37;;;1.90;;
13571;SDS011;6857;53.484;10.216;2023-08-31T08:23:40;2.97;;;1.90;;
13571;SDS011;6857;53.484;10.216;2023-08-31T08:26:06;6.10;;;2.17;;
13571;SDS011;6857;53.484;10.216;2023-08-31T08:28:32;6.70;;;2.60;;
13571;SDS011;6857;53.484;10.216;2023-08-31T08:31:00;4.20;;;2.60;;
13571;SDS011;6857;53.484;10.216;2023-08-31T08:33:28;4.97;;;2.30;;
13571;SDS011;6857;53.484;10.216;2023-08-31T08:35:55;5.13;;;2.77;;
13571;SDS011;6857;53.484;10.216;2023-08-31T08:38:21;4.87;;;2.50;;
13571;SDS011;6857;53.484;10.216;2023-08-31T08:40:47;3.00;;;2.17;;
13571;SDS011;6857;53.484;10.216;2023-08-31T08:43:13;4.57;;;2.63;;
13571;SDS011;6857;53.484;10.216;2023-08-31T08:45:39;5.03;;;2.47;;
13571;SDS011;6857;53.484;10.216;2023-08-31T08:48:07;4.23;;;2.20;;
13571;SDS011;6857;53.484;10.216;2023-08-31T08:50:34;4.27;;;2.50;;
13571;SDS011;6857;53.484;10.216;2023-08-31T08:53:01;3.00;;;2.10;;
13571;SDS011;6857;53.484;10.216;2023-08-31T08:55:27;4.27;;;2.00;;
13571;SDS011;6857;53.484;10.216;2023-08-31T08:57:53;4.80;;;2.33;;
13571;SDS011;6857;53.484;10.216;2023-08-31T09:00:19;3.17;;;2.10;;
13571;SDS011;6857;53.484;10.216;2023-08-31T09:02:45;3.50;;;2.10;;
13571;SDS011;6857;53.484;10.216;2023-08-31T09:05:11;4.17;;;2.10;;
13571;SDS011;6857;53.484;10.216;2023-08-31T09:07:38;4.50;;;2.10;;
13571;SDS011;6857;53.484;10.216;2023-08-31T09:10:04;7.00;;;2.97;;
13571;SDS011;6857;53.484;10.216;2023-08-31T09:12:30;3.10;;;2.40;;
13571;SDS011;6857;53.484;10.216;2023-08-31T09:15:00;3.23;;;2.10;;
13571;SDS011;6857;53.484;10.216;2023-08-31T09:17:26;3.07;;;2.23;;
13571;SDS011;6857;53.484;10.216;2023-08-31T09:20:02;4.37;;;2.57;;
13571;SDS011;6857;53.484;10.216;2023-08-31T09:22:32;3.17;;;2.43;;
13571;SDS011;6857;53.484;10.216;2023-08-31T09:24:59;3.43;;;2.70;;
13571;SDS011;6857;53.484;10.216;2023-08-31T09:27:25;4.73;;;2.60;;
13571;SDS011;6857;53.484;10.216;2023-08-31T09:29:54;7.33;;;3.30;;
13571;SDS011;6857;53.484;10.216;2023-08-31T09:32:20;3.33;;;2.70;;
13571;SDS011;6857;53.484;10.216;2023-08-31T09:34:46;4.57;;;2.50;;
13571;SDS011;6857;53.484;10.216;2023-08-31T09:37:15;4.30;;;2.80;;
13571;SDS011;6857;53.484;10.216;2023-08-31T09:39:41;6.37;;;3.00;;
13571;SDS011;6857;53.484;10.216;2023-08-31T09:42:07;2.70;;;2.50;;
13571;SDS011;6857;53.484;10.216;2023-08-31T09:44:34;6.27;;;3.27;;
13571;SDS011;6857;53.484;10.216;2023-08-31T09:47:05;4.07;;;2.70;;
13571;SDS011;6857;53.484;10.216;2023-08-31T09:49:31;8.27;;;3.03;;
13571;SDS011;6857;53.484;10.216;2023-08-31T09:51:58;3.93;;;2.50;;
13571;SDS011;6857;53.484;10.216;2023-08-31T09:54:26;6.63;;;2.40;;
13571;SDS011;6857;53.484;10.216;2023-08-31T09:56:53;4.70;;;2.53;;
13571;SDS011;6857;53.484;10.216;2023-08-31T09:59:21;3.63;;;2.90;;
13571;SDS011;6857;53.484;10.216;2023-08-31T10:01:48;6.10;;;2.83;;
13571;SDS011;6857;53.484;10.216;2023-08-31T10:04:14;3.80;;;2.87;;
13571;SDS011;6857;53.484;10.216;2023-08-31T10:06:41;6.03;;;3.10;;
13571;SDS011;6857;53.484;10.216;2023-08-31T10:09:07;4.30;;;2.63;;
13571;SDS011;6857;53.484;10.216;2023-08-31T10:11:38;6.83;;;2.30;;
13571;SDS011;6857;53.484;10.216;2023-08-31T10:14:05;5.80;;;2.80;;
13571;SDS011;6857;53.484;10.216;2023-08-31T10:16:31;3.60;;;2.43;;
13571;SDS011;6857;53.484;10.216;2023-08-31T10:18:58;3.60;;;2.23;;
13571;SDS011;6857;53.484;10.216;2023-08-31T10:21:24;3.77;;;2.13;;
13571;SDS011;6857;53.484;10.216;2023-08-31T10:23:50;3.97;;;2.07;;
13571;SDS011;6857;53.484;10.216;2023-08-31T10:26:23;4.70;;;2.73;;
13571;SDS011;6857;53.484;10.216;2023-08-31T10:28:50;4.03;;;2.63;;
13571;SDS011;6857;53.484;10.216;2023-08-31T10:31:16;4.47;;;2.60;;
13571;SDS011;6857;53.484;10.216;2023-08-31T10:33:43;3.50;;;2.53;;
13571;SDS011;6857;53.484;10.216;2023-08-31T10:36:13;4.13;;;2.63;;
13571;SDS011;6857;53.484;10.216;2023-08-31T10:38:39;5.13;;;3.73;;
13571;SDS011;6857;53.484;10.216;2023-08-31T10:43:44;4.40;;;3.23;;
13571;SDS011;6857;53.484;10.216;2023-08-31T10:48:52;4.97;;;2.93;;
13571;SDS011;6857;53.484;10.216;2023-08-31T10:51:21;5.97;;;3.37;;
13571;SDS011;6857;53.484;10.216;2023-08-31T10:53:47;3.10;;;2.33;;
13571;SDS011;6857;53.484;10.216;2023-08-31T10:56:15;3.43;;;2.60;;
13571;SDS011;6857;53.484;10.216;2023-08-31T10:58:41;3.40;;;2.20;;
13571;SDS011;6857;53.484;10.216;2023-08-31T11:01:07;4.07;;;2.50;;
13571;SDS011;6857;53.484;10.216;2023-08-31T11:03:45;3.40;;;2.33;;
13571;SDS011;6857;53.484;10.216;2023-08-31T11:06:19;3.50;;;2.23;;
13571;SDS011;6857;53.484;10.216;2023-08-31T11:08:47;4.83;;;2.10;;
13571;SDS011;6857;53.484;10.216;2023-08-31T11:11:14;3.20;;;1.70;;
13571;SDS011;6857;53.484;10.216;2023-08-31T11:13:44;2.73;;;1.87;;
13571;SDS011;6857;53.484;10.216;2023-08-31T11:16:10;3.67;;;1.97;;
13571;SDS011;6857;53.484;10.216;2023-08-31T11:18:36;2.73;;;2.00;;
13571;SDS011;6857;53.484;10.216;2023-08-31T11:21:03;3.33;;;2.30;;
13571;SDS011;6857;53.484;10.216;2023-08-31T11:23:30;3.87;;;2.37;;
13571;SDS011;6857;53.484;10.216;2023-08-31T11:25:56;2.70;;;2.40;;
13571;SDS011;6857;53.484;10.216;2023-08-31T11:28:22;2.37;;;2.13;;
13571;SDS011;6857;53.484;10.216;2023-08-31T11:30:48;2.60;;;2.30;;
13571;SDS011;6857;53.484;10.216;2023-08-31T11:33:14;3.60;;;2.20;;
13571;SDS011;6857;53.484;10.216;2023-08-31T11:35:41;2.73;;;2.10;;
13571;SDS011;6857;53.484;10.216;2023-08-31T11:38:09;2.77;;;2.00;;
13571;SDS011;6857;53.484;10.216;2023-08-31T11:40:35;4.47;;;2.00;;
13571;SDS011;6857;53.484;10.216;2023-08-31T11:43:02;2.60;;;1.83;;
13571;SDS011;6857;53.484;10.216;2023-08-31T11:45:29;2.93;;;1.70;;
13571;SDS011;6857;53.484;10.216;2023-08-31T11:47:56;4.07;;;1.70;;
13571;SDS011;6857;53.484;10.216;2023-08-31T11:50:22;2.77;;;2.00;;
13571;SDS011;6857;53.484;10.216;2023-08-31T11:52:49;3.10;;;2.00;;
13571;SDS011;6857;53.484;10.216;2023-08-31T11:55:15;2.10;;;1.73;;
13571;SDS011;6857;53.484;10.216;2023-08-31T11:57:49;3.47;;;1.90;;
13571;SDS011;6857;53.484;10.216;2023-08-31T12:00:18;2.70;;;1.50;;
13571;SDS011;6857;53.484;10.216;2023-08-31T12:02:45;2.60;;;1.83;;
13571;SDS011;6857;53.484;10.216;2023-08-31T12:05:13;3.10;;;2.20;;
13571;SDS011;6857;53.484;10.216;2023-08-31T12:07:40;2.60;;;1.80;;
13571;SDS011;6857;53.484;10.216;2023-08-31T12:10:07;2.57;;;1.83;;
13571;SDS011;6857;53.484;10.216;2023-08-31T12:12:33;2.37;;;1.40;;
13571;SDS011;6857;53.484;10.216;2023-08-31T12:15:01;3.23;;;1.70;;
13571;SDS011;6857;53.484;10.216;2023-08-31T12:17:29;3.23;;;1.80;;
13571;SDS011;6857;53.484;10.216;2023-08-31T12:20:02;2.03;;;1.20;;
13571;SDS011;6857;53.484;10.216;2023-08-31T12:22:29;5.13;;;2.00;;
13571;SDS011;6857;53.484;10.216;2023-08-31T12:24:55;1.73;;;1.27;;
13571;SDS011;6857;53.484;10.216;2023-08-31T12:27:21;1.33;;;1.20;;
13571;SDS011;6857;53.484;10.216;2023-08-31T12:29:47;3.87;;;1.77;;
13571;SDS011;6857;53.484;10.216;2023-08-31T12:32:15;3.83;;;1.53;;
13571;SDS011;6857;53.484;10.216;2023-08-31T12:34:43;2.47;;;1.50;;
13571;SDS011;6857;53.484;10.216;2023-08-31T12:37:09;2.30;;;1.33;;
13571;SDS011;6857;53.484;10.216;2023-08-31T12:39:35;2.67;;;1.40;;
13571;SDS011;6857;53.484;10.216;2023-08-31T12:42:02;1.67;;;1.30;;
13571;SDS011;6857;53.484;10.216;2023-08-31T12:44:28;3.67;;;1.23;;
13571;SDS011;6857;53.484;10.216;2023-08-31T12:46:54;4.60;;;1.67;;
13571;SDS011;6857;53.484;10.216;2023-08-31T12:49:20;2.37;;;1.00;;
13571;SDS011;6857;53.484;10.216;2023-08-31T12:51:47;2.03;;;1.10;;
13571;SDS011;6857;53.484;10.216;2023-08-31T12:54:15;2.27;;;1.33;;
13571;SDS011;6857;53.484;10.216;2023-08-31T12:56:41;3.53;;;1.60;;
13571;SDS011;6857;53.484;10.216;2023-08-31T12:59:07;2.07;;;1.30;;
13571;SDS011;6857;53.484;10.216;2023-08-31T13:01:33;2.60;;;1.33;;
13571;SDS011;6857;53.484;10.216;2023-08-31T13:03:59;2.03;;;1.03;;
13571;SDS011;6857;53.484;10.216;2023-08-31T13:06:25;2.90;;;1.10;;
13571;SDS011;6857;53.484;10.216;2023-08-31T13:08:51;1.30;;;0.70;;
13571;SDS011;6857;53.484;10.216;2023-08-31T13:11:17;2.37;;;0.93;;
13571;SDS011;6857;53.484;10.216;2023-08-31T13:13:48;3.43;;;1.30;;
13571;SDS011;6857;53.484;10.216;2023-08-31T13:16:16;2.03;;;0.90;;
13571;SDS011;6857;53.484;10.216;2023-08-31T13:18:42;1.93;;;0.77;;
13571;SDS011;6857;53.484;10.216;2023-08-31T13:21:08;4.30;;;1.30;;
13571;SDS011;6857;53.484;10.216;2023-08-31T13:23:33;3.93;;;1.97;;
13571;SDS011;6857;53.484;10.216;2023-08-31T13:25:59;4.63;;;1.30;;
13571;SDS011;6857;53.484;10.216;2023-08-31T13:28:25;2.83;;;1.10;;
13571;SDS011;6857;53.484;10.216;2023-08-31T13:30:55;3.23;;;1.07;;
13571;SDS011;6857;53.484;10.216;2023-08-31T13:33:22;3.50;;;1.13;;
13571;SDS011;6857;53.484;10.216;2023-08-31T13:35:48;2.13;;;1.07;;
13571;SDS011;6857;53.484;10.216;2023-08-31T13:38:15;2.67;;;1.00;;
13571;SDS011;6857;53.484;10.216;2023-08-31T13:40:41;1.53;;;0.80;;
13571;SDS011;6857;53.484;10.216;2023-08-31T13:43:07;1.90;;;0.97;;
13571;SDS011;6857;53.484;10.216;2023-08-31T13:45:33;1.10;;;0.60;;
13571;SDS011;6857;53.484;10.216;2023-08-31T13:47:59;1.00;;;0.80;;
13571;SDS011;6857;53.484;10.216;2023-08-31T13:50:28;1.20;;;0.73;;
13571;SDS011;6857;53.484;10.216;2023-08-31T13:52:54;2.33;;;1.00;;
13571;SDS011;6857;53.484;10.216;2023-08-31T13:55:21;1.63;;;0.50;;
13571;SDS011;6857;53.484;10.216;2023-08-31T13:57:48;1.33;;;0.60;;
13571;SDS011;6857;53.484;10.216;2023-08-31T14:00:14;0.87;;;0.60;;
13571;SDS011;6857;53.484;10.216;2023-08-31T14:02:41;0.97;;;0.63;;
13571;SDS011;6857;53.484;10.216;2023-08-31T14:05:08;1.33;;;0.70;;
13571;SDS011;6857;53.484;10.216;2023-08-31T14:07:38;3.40;;;0.80;;
13571;SDS011;6857;53.484;10.216;2023-08-31T14:10:04;1.43;;;0.60;;
13571;SDS011;6857;53.484;10.216;2023-08-31T14:12:31;0.67;;;0.50;;
13571;SDS011;6857;53.484;10.216;2023-08-31T14:14:57;1.67;;;0.80;;
13571;SDS011;6857;53.484;10.216;2023-08-31T14:17:23;2.53;;;0.70;;
13571;SDS011;6857;53.484;10.216;2023-08-31T14:19:49;1.77;;;0.90;;
13571;SDS011;6857;53.484;10.216;2023-08-31T14:22:15;1.33;;;0.50;;
13571;SDS011;6857;53.484;10.216;2023-08-31T14:24:41;1.63;;;0.70;;
13571;SDS011;6857;53.484;10.216;2023-08-31T14:27:07;1.87;;;0.80;;
13571;SDS011;6857;53.484;10.216;2023-08-31T14:29:33;4.20;;;1.07;;
13571;SDS011;6857;53.484;10.216;2023-08-31T14:32:00;2.83;;;1.30;;
13571;SDS011;6857;53.484;10.216;2023-08-31T14:34:26;3.53;;;1.80;;
13571;SDS011;6857;53.484;10.216;2023-08-31T14:36:52;2.40;;;0.77;;
13571;SDS011;6857;53.484;10.216;2023-08-31T14:39:22;3.27;;;1.07;;
13571;SDS011;6857;53.484;10.216;2023-08-31T14:41:49;1.73;;;0.80;;
13571;SDS011;6857;53.484;10.216;2023-08-31T14:44:15;1.70;;;0.90;;
13571;SDS011;6857;53.484;10.216;2023-08-31T14:46:42;2.33;;;1.10;;
13571;SDS011;6857;53.484;10.216;2023-08-31T14:49:07;1.23;;;0.77;;
13571;SDS011;6857;53.484;10.216;2023-08-31T14:51:33;1.75;;;1.10;;
13571;SDS011;6857;53.484;10.216;2023-08-31T14:53:59;1.90;;;0.80;;
13571;SDS011;6857;53.484;10.216;2023-08-31T14:56:25;1.63;;;0.90;;